Porto Velho の空港の天気 - METARとTAF

ポルト・ベーリョ空港 ( SBPV / PVH ) - ブラジル ロンドニア州、Porto Velho
飛行場実況気象(Metar)
観測時間07/10 01:00 AMT (07/10 05:00 UTC)
風向・風速南南西 1m/s
視程10km以上
天気現象
少しの雲 雲底高度 550m
気温23℃
湿度94%
気圧1013hPa
METARSBPV 100500Z 21002KT 9999 FEW018 23/22 Q1013
過去の天気等 Google飛行場航空写真 Wunderground天気予報

過去48時間のMETAR

飛行場予報(TAF)
発表時間: 7/09 23:00 AMT (7/10 03:00 UTC)
予報対象時間: 10日2時 AMT ~ 11日2時 AMT
風向・風速南 3m/s
視程10km以上
なし
10日10時 AMT ~ 10日12時 AMT に徐々に
視程10km以上
全天の8割程度の雲 雲底高度 910m
10日14時 AMT ~ 10日16時 AMT に徐々に
全天の4割程度の雲 雲底高度 760m
少しの塔状積雲 雲底高度 1070m
10日16時 AMT ~ 10日18時 AMT に徐々に
風向・風速東 3m/s
10日20時 AMT ~ 10日22時 AMT に徐々に
風向・風速静穏
視程10km以上
なし
TAF SBPV 100300Z 1006/1106 19005KT CAVOK TN23/1009Z TX32/1019Z
BECMG 1014/1016 9999 BKN030
BECMG 1018/1020 SCT025 FEW035TCU
BECMG 1020/1022 10005KT
BECMG 1100/1102 00000KT CAVOK RMK PED